Time;durP1;ratioP1;P1;durP2;ratioP2;P2;SDS_P1;SDS_P2;PMS_P1;PMS_P2;Temp;Humidity;BMP_temperature;BMP_pressure;BME280_temperature;BME280_humidity;BME280_pressure;Samples;Min_cycle;Max_cycle;Signal;HPM_P1;HPM_P2
2021/12/27 00:01:56;;;;;;;35.63;15.37;;;;;;;-3.21;69.66;100096.97;5011434;28;20117;-74
2021/12/27 00:04:22;;;;;;;30.67;15.40;;;;;;;-3.15;68.94;100104.09;5011206;28;20125;-75
2021/12/27 00:06:48;;;;;;;34.80;14.57;;;;;;;-3.16;69.20;100108.38;5011337;28;20076;-75
2021/12/27 00:09:13;;;;;;;29.67;13.30;;;;;;;-3.20;69.06;100113.34;5010184;28;20084;-74
2021/12/27 00:11:39;;;;;;;30.33;13.53;;;;;;;-3.12;69.28;100115.44;5011487;28;20045;-74
2021/12/27 00:14:05;;;;;;;33.07;14.10;;;;;;;-3.02;69.53;100113.25;5011316;28;20042;-74
2021/12/27 00:16:31;;;;;;;35.07;15.17;;;;;;;-2.99;68.85;100101.31;5012893;28;20060;-74
2021/12/27 00:18:56;;;;;;;32.17;14.27;;;;;;;-2.94;68.86;100093.78;5014880;28;20508;-75
2021/12/27 00:21:21;;;;;;;31.47;13.60;;;;;;;-2.94;68.79;100097.22;5015310;28;20113;-74
2021/12/27 00:23:47;;;;;;;29.67;14.63;;;;;;;-2.91;69.07;100089.63;5015161;28;20038;-74
2021/12/27 00:26:12;;;;;;;31.83;13.90;;;;;;;-2.93;68.22;100088.69;5013867;28;20064;-75
2021/12/27 00:28:37;;;;;;;31.83;14.40;;;;;;;-2.88;68.12;100091.47;5015044;28;20042;-76
2021/12/27 00:31:03;;;;;;;34.63;13.07;;;;;;;-2.88;68.31;100083.72;5015022;28;20061;-76
2021/12/27 00:33:29;;;;;;;29.57;13.63;;;;;;;-2.84;68.23;100089.88;5015077;28;20045;-76
2021/12/27 00:35:54;;;;;;;35.03;14.97;;;;;;;-2.84;68.30;100089.88;5014832;28;20038;-76
2021/12/27 00:38:19;;;;;;;29.90;13.70;;;;;;;-2.82;68.53;100083.94;5014884;28;20515;-76
2021/12/27 00:40:45;;;;;;;33.30;14.47;;;;;;;-2.78;68.62;100084.94;5015208;28;20125;-76
2021/12/27 00:43:10;;;;;;;32.47;13.77;;;;;;;-2.79;68.88;100075.44;5014702;28;20405;-76
2021/12/27 00:45:36;;;;;;;30.77;13.53;;;;;;;-2.76;68.77;100068.69;5014178;28;20061;-77
2021/12/27 00:48:01;;;;;;;31.20;14.33;;;;;;;-2.72;68.24;100075.75;5014670;28;20041;-76
2021/12/27 00:50:28;;;;;;;34.30;15.10;;;;;;;-2.77;68.51;100069.53;5014760;28;20038;-76
2021/12/27 00:52:53;;;;;;;30.70;14.73;;;;;;;-2.74;68.65;100072.22;5013528;28;20038;-76
2021/12/27 00:55:19;;;;;;;31.20;14.13;;;;;;;-2.69;69.01;100070.69;5021718;28;20034;-76
2021/12/27 00:57:46;;;;;;;29.87;14.43;;;;;;;-2.67;68.55;100063.03;5014647;28;20480;-76
2021/12/27 01:00:14;;;;;;;30.93;14.60;;;;;;;-2.63;68.87;100048.50;5014493;28;20042;-76
2021/12/27 01:02:40;;;;;;;29.73;14.93;;;;;;;-2.62;68.72;100053.75;5013253;28;20037;-76
2021/12/27 01:05:07;;;;;;;29.03;12.33;;;;;;;-2.56;69.19;100055.69;5014183;28;20033;-76
2021/12/27 01:07:32;;;;;;;32.67;13.30;;;;;;;-2.54;69.38;100046.28;5014372;28;20080;-76
2021/12/27 01:15:10;;;;;;;33.70;14.30;;;;;;;-2.40;68.87;100047.69;5010101;28;20112;-76
2021/12/27 01:17:43;;;;;;;33.77;14.50;;;;;;;-2.35;68.74;100051.34;5011617;28;20029;-76
2021/12/27 01:20:14;;;;;;;30.23;13.83;;;;;;;-2.32;68.17;100048.00;5014241;28;20045;-76
2021/12/27 01:22:39;;;;;;;31.23;14.10;;;;;;;-2.31;69.28;100042.84;5014310;28;20126;-76
2021/12/27 01:25:06;;;;;;;30.47;13.73;;;;;;;-2.29;68.72;100046.38;5013871;28;20131;-76
2021/12/27 01:27:32;;;;;;;31.10;14.23;;;;;;;-2.24;68.88;100038.81;5013146;28;20068;-76
2021/12/27 01:29:58;;;;;;;28.90;13.57;;;;;;;-2.19;68.29;100049.31;5014017;28;20092;-76
2021/12/27 01:32:26;;;;;;;31.53;15.50;;;;;;;-2.19;68.35;100041.56;5014008;28;20467;-76
2021/12/27 01:34:51;;;;;;;31.37;13.87;;;;;;;-2.17;68.68;100039.91;5013807;28;20408;-76
2021/12/27 01:37:18;;;;;;;33.53;14.30;;;;;;;-2.15;69.24;100038.25;5013899;28;20052;-76
2021/12/27 01:39:44;;;;;;;28.90;13.27;;;;;;;-2.07;69.19;100036.84;5013939;28;20480;-76
2021/12/27 01:42:10;;;;;;;32.07;14.67;;;;;;;-2.09;68.42;100034.22;5013833;28;20405;-76
2021/12/27 01:44:35;;;;;;;29.23;13.30;;;;;;;-2.09;68.97;100034.22;5013513;28;20038;-76
2021/12/27 01:47:00;;;;;;;34.73;14.67;;;;;;;-2.03;69.08;100025.78;5013855;28;20503;-76
2021/12/27 01:49:26;;;;;;;33.30;13.63;;;;;;;-1.99;69.27;100025.97;5013762;28;20535;-76
2021/12/27 01:51:51;;;;;;;28.50;13.53;;;;;;;-1.90;68.80;100019.34;5012366;28;20037;-76
2021/12/27 01:54:16;;;;;;;30.83;13.97;;;;;;;-1.88;68.30;100016.00;5013657;28;20045;-76
2021/12/27 01:56:42;;;;;;;30.67;13.67;;;;;;;-1.90;68.67;100015.06;5012043;28;20038;-76
2021/12/27 01:59:07;;;;;;;29.23;13.97;;;;;;;-1.90;68.24;100019.34;5013491;28;20046;-75
2021/12/27 02:01:33;;;;;;;29.47;13.40;;;;;;;-1.91;68.76;100017.56;5013414;28;20038;-76
2021/12/27 02:03:58;;;;;;;31.03;13.60;;;;;;;-1.91;69.32;100036.59;5013498;28;20104;-76
2021/12/27 02:06:25;;;;;;;28.93;13.43;;;;;;;-1.84;69.17;100029.91;5013315;28;20042;-76
2021/12/27 02:08:51;;;;;;;31.30;13.87;;;;;;;-1.79;69.06;100030.94;5013382;28;20120;-76
2021/12/27 02:11:18;;;;;;;32.90;13.40;;;;;;;-1.73;68.65;100033.75;5021267;28;20125;-76
2021/12/27 02:13:45;;;;;;;29.97;14.10;;;;;;;-1.72;69.04;100029.47;5011866;28;20033;-76
2021/12/27 02:16:13;;;;;;;33.23;14.27;;;;;;;-1.68;69.16;100026.16;5011748;28;20030;-76
2021/12/27 02:18:40;;;;;;;26.10;12.97;;;;;;;-1.68;69.30;100027.03;5013177;28;20091;-76
2021/12/27 02:21:06;;;;;;;29.20;13.60;;;;;;;-1.63;69.03;100032.38;5013145;28;20404;-75
2021/12/27 02:23:32;;;;;;;35.20;15.43;;;;;;;-1.60;68.64;100016.94;5011817;28;20481;-76
2021/12/27 02:25:57;;;;;;;31.03;14.40;;;;;;;-1.58;69.21;100018.75;5012811;28;20129;-76
2021/12/27 02:28:22;;;;;;;29.97;14.13;;;;;;;-1.58;68.82;100018.75;5012969;28;20112;-76
2021/12/27 02:30:52;;;;;;;29.03;13.33;;;;;;;-1.57;69.24;100011.91;5012999;28;20065;-76
2021/12/27 02:33:18;;;;;;;26.67;12.90;;;;;;;-1.53;69.04;100005.09;5012913;28;20069;-76
2021/12/27 02:35:51;;;;;;;28.33;13.10;;;;;;;-1.51;68.53;100011.22;5012630;28;20037;-76
2021/12/27 02:38:20;;;;;;;27.95;12.65;;;;;;;-1.51;68.83;100012.09;5012658;28;20404;-76
2021/12/27 02:40:46;;;;;;;28.30;13.10;;;;;;;-1.48;69.21;100007.00;5012943;28;20038;-76
2021/12/27 02:43:14;;;;;;;30.33;13.93;;;;;;;-1.49;68.73;99994.91;5012660;28;20120;-76
2021/12/27 02:45:46;;;;;;;32.00;14.33;;;;;;;-1.43;68.69;99987.34;5011170;28;20077;-76
2021/12/27 02:48:13;;;;;;;26.88;13.38;;;;;;;-1.43;69.29;99978.69;5012507;28;20045;-76
2021/12/27 02:50:42;;;;;;;31.87;14.13;;;;;;;-1.35;69.43;99969.47;5012580;28;20041;-76
2021/12/27 02:53:09;;;;;;;28.30;14.17;;;;;;;-1.31;68.85;99963.59;5011841;28;20034;-76
2021/12/27 02:55:34;;;;;;;32.90;14.50;;;;;;;-1.32;68.83;99966.97;5012309;28;20032;-76
2021/12/27 02:58:00;;;;;;;27.73;12.87;;;;;;;-1.32;69.06;99965.28;5012323;28;20112;-76
2021/12/27 03:00:32;;;;;;;34.73;14.27;;;;;;;-1.30;68.96;99961.88;5012488;28;20130;-76
2021/12/27 03:02:57;;;;;;;27.73;13.10;;;;;;;-1.28;69.36;99961.09;5012517;28;20042;-76
2021/12/27 03:05:26;;;;;;;28.60;13.90;;;;;;;-1.26;69.16;99953.34;5015988;28;20113;-76
2021/12/27 03:07:52;;;;;;;28.23;12.93;;;;;;;-1.27;69.52;99956.78;5017146;28;20060;-76
2021/12/27 03:10:21;;;;;;;26.43;13.07;;;;;;;-1.23;69.00;99956.03;5012669;28;20034;-76
2021/12/27 03:12:49;;;;;;;33.10;12.83;;;;;;;-1.21;69.40;99944.03;5012127;28;20044;-76
2021/12/27 03:15:17;;;;;;;31.17;13.83;;;;;;;-1.16;69.66;99939.88;5011934;28;20095;-76
2021/12/27 03:17:46;;;;;;;27.30;13.03;;;;;;;-1.13;69.18;99939.97;5011990;28;20103;-76
2021/12/27 03:20:13;;;;;;;26.70;12.90;;;;;;;-1.06;69.57;99934.16;5011972;28;20472;-76
2021/12/27 03:22:40;;;;;;;30.30;13.00;;;;;;;-1.11;69.21;99939.19;5011088;28;20239;-76
2021/12/27 03:25:08;;;;;;;27.83;12.80;;;;;;;-1.03;69.57;99939.41;5011639;28;20038;-76
2021/12/27 03:27:33;;;;;;;31.50;13.70;;;;;;;-1.02;69.95;99941.19;5010826;28;20060;-76
2021/12/27 03:29:58;;;;;;;29.43;13.87;;;;;;;-1.01;70.30;99936.88;5011926;28;20038;-76
2021/12/27 03:32:24;;;;;;;27.87;13.80;;;;;;;-1.01;70.18;99936.88;5011900;28;20124;-76
2021/12/27 03:34:54;;;;;;;32.67;14.77;;;;;;;-1.00;70.04;99931.72;5011652;28;20112;-76
2021/12/27 03:37:21;;;;;;;29.23;13.03;;;;;;;-0.95;70.68;99929.28;5011485;28;20514;-76
2021/12/27 03:39:46;;;;;;;29.60;13.53;;;;;;;-0.95;70.98;99932.75;5011822;28;20040;-76
2021/12/27 03:42:12;;;;;;;31.23;14.10;;;;;;;-0.88;70.69;99932.13;5011762;28;20419;-76
2021/12/27 03:44:37;;;;;;;26.60;12.77;;;;;;;-0.94;70.53;99929.34;5011361;28;20542;-76
2021/12/27 03:47:02;;;;;;;31.93;13.83;;;;;;;-0.93;70.44;99923.31;5011872;28;20395;-76
2021/12/27 03:49:29;;;;;;;30.60;13.57;;;;;;;-0.85;71.19;99922.69;5011621;28;20476;-76
2021/12/27 03:51:54;;;;;;;25.57;13.43;;;;;;;-0.79;71.46;99928.03;5011260;28;20053;-76
2021/12/27 03:54:20;;;;;;;25.57;12.90;;;;;;;-0.75;70.82;99923.00;5011476;28;20025;-77
2021/12/27 03:56:45;;;;;;;26.73;13.13;;;;;;;-0.70;71.32;99916.25;5011518;28;20068;-76
2021/12/27 03:59:23;;;;;;;25.90;12.13;;;;;;;-0.66;71.03;99919.78;5011553;28;20034;-76
2021/12/27 04:01:49;;;;;;;26.97;12.30;;;;;;;-0.68;71.03;99908.53;5011831;28;20554;-76
2021/12/27 04:04:14;;;;;;;29.83;13.47;;;;;;;-0.70;71.63;99911.06;5011491;28;20038;-76
2021/12/27 04:06:40;;;;;;;28.67;13.47;;;;;;;-0.65;71.73;99906.00;5011303;28;20111;-76
2021/12/27 04:09:05;;;;;;;26.20;12.33;;;;;;;-0.57;71.78;99908.81;5010267;28;20503;-76
2021/12/27 04:11:31;;;;;;;28.00;13.33;;;;;;;-0.58;71.48;99909.66;5011486;28;20048;-76
2021/12/27 04:13:58;;;;;;;29.83;14.43;;;;;;;-0.51;71.66;99901.22;5011391;28;20040;-76
2021/12/27 04:16:23;;;;;;;29.27;13.50;;;;;;;-0.49;71.50;99904.75;5011196;28;20042;-76
2021/12/27 04:18:48;;;;;;;27.13;13.33;;;;;;;-0.51;71.86;99903.81;5011000;28;20034;-76
2021/12/27 04:21:14;;;;;;;27.57;13.77;;;;;;;-0.49;71.99;99900.44;5011333;28;20072;-76
2021/12/27 04:23:39;;;;;;;24.97;12.87;;;;;;;-0.55;72.16;99905.44;5011356;28;20034;-76
2021/12/27 04:26:05;;;;;;;27.37;13.67;;;;;;;-0.53;72.03;99900.28;5011177;28;20605;-76
2021/12/27 04:28:31;;;;;;;28.50;13.40;;;;;;;-0.50;71.91;99906.47;5018296;28;20049;-77
2021/12/27 04:30:56;;;;;;;24.83;12.73;;;;;;;-0.43;72.12;99911.81;5011263;28;20121;-76
2021/12/27 04:33:22;;;;;;;22.07;11.40;;;;;;;-0.41;72.27;99908.41;5011337;28;20050;-76
2021/12/27 04:35:47;;;;;;;23.70;11.77;;;;;;;-0.38;72.54;99902.44;5011022;28;20033;-76
2021/12/27 04:38:13;;;;;;;28.60;13.80;;;;;;;-0.37;72.07;99899.00;5011037;28;20622;-76
2021/12/27 04:40:40;;;;;;;23.57;12.07;;;;;;;-0.37;72.53;99909.38;5011355;28;20077;-76
2021/12/27 04:43:11;;;;;;;26.77;12.43;;;;;;;-0.31;72.42;99901.78;5010950;28;20038;-76
2021/12/27 04:45:37;;;;;;;27.77;13.03;;;;;;;-0.26;72.68;99901.06;5010863;28;20515;-76
2021/12/27 04:48:03;;;;;;;24.10;11.93;;;;;;;-0.20;72.58;99897.75;5010933;28;20066;-77
2021/12/27 04:50:29;;;;;;;27.77;11.33;;;;;;;-0.14;72.24;99905.69;5007272;28;20029;-76
2021/12/27 04:52:54;;;;;;;22.17;11.00;;;;;;;-0.15;72.31;99893.56;5010828;28;20088;-76
2021/12/27 04:55:22;;;;;;;22.17;10.50;;;;;;;-0.10;72.29;99898.88;5010810;28;20037;-76
2021/12/27 04:57:47;;;;;;;22.00;11.13;;;;;;;-0.07;72.08;99902.44;5006818;28;20450;-76
2021/12/27 05:00:13;;;;;;;22.83;11.90;;;;;;;-0.06;72.01;99898.97;5010838;28;20034;-76
2021/12/27 05:02:39;;;;;;;27.53;12.83;;;;;;;-0.06;72.06;99893.78;5011331;28;20037;-76
2021/12/27 05:05:04;;;;;;;26.33;11.73;;;;;;;-0.06;72.13;99890.34;5012990;28;20042;-76
2021/12/27 05:07:30;;;;;;;22.57;11.57;;;;;;;-0.02;72.02;99892.19;5014437;28;20034;-76
2021/12/27 05:09:55;;;;;;;24.40;12.03;;;;;;;-0.01;72.08;99887.00;5014457;28;20535;-76
2021/12/27 05:12:20;;;;;;;25.30;12.63;;;;;;;-0.02;72.45;99880.09;5014243;28;20077;-76
2021/12/27 05:14:45;;;;;;;24.70;12.73;;;;;;;0.03;72.21;99879.31;5014208;28;20438;-76
2021/12/27 05:17:11;;;;;;;19.23;10.27;;;;;;;0.02;72.47;99872.38;5014284;28;20068;-76
2021/12/27 05:19:36;;;;;;;25.90;12.33;;;;;;;0.05;72.59;99877.63;5012872;28;20030;-76
2021/12/27 05:22:02;;;;;;;23.03;10.80;;;;;;;0.08;72.44;99882.91;5014330;28;20043;-76
2021/12/27 05:24:28;;;;;;;24.27;11.77;;;;;;;0.14;72.32;99875.28;5013974;28;20041;-76
2021/12/27 05:26:53;;;;;;;27.33;12.00;;;;;;;0.15;72.63;99869.25;5012817;28;20407;-76
2021/12/27 05:29:19;;;;;;;21.87;11.40;;;;;;;0.16;71.89;99863.25;5013988;28;20042;-76
2021/12/27 05:31:44;;;;;;;21.83;11.13;;;;;;;0.16;72.60;99864.13;5014156;28;20082;-76
2021/12/27 05:34:11;;;;;;;18.37;10.43;;;;;;;0.20;72.64;99857.25;5014191;28;20099;-76
2021/12/27 05:36:36;;;;;;;24.80;11.80;;;;;;;0.25;72.27;99862.56;5013746;28;20034;-76
2021/12/27 05:39:02;;;;;;;21.70;11.47;;;;;;;0.26;72.46;99865.19;5013842;28;20396;-76
2021/12/27 05:41:27;;;;;;;22.87;11.37;;;;;;;0.29;72.92;99862.69;5013743;28;20057;-76
2021/12/27 05:43:53;;;;;;;20.03;10.33;;;;;;;0.30;73.00;99872.22;5013735;28;20030;-76
2021/12/27 05:46:18;;;;;;;22.00;10.97;;;;;;;0.35;72.79;99867.16;5013611;28;20045;-76
2021/12/27 05:48:43;;;;;;;22.63;10.63;;;;;;;0.41;72.82;99859.50;5013666;28;20129;-76
2021/12/27 05:51:09;;;;;;;19.87;10.20;;;;;;;0.41;72.53;99857.78;5012562;28;20037;-76
2021/12/27 05:53:34;;;;;;;22.47;11.17;;;;;;;0.44;72.93;99859.56;5013638;28;20034;-76
2021/12/27 05:55:59;;;;;;;20.17;10.30;;;;;;;0.48;72.65;99851.03;5013239;28;20505;-76
2021/12/27 05:58:25;;;;;;;20.23;10.40;;;;;;;0.51;72.65;99858.88;5013416;28;20049;-76
2021/12/27 06:00:51;;;;;;;19.87;9.73;;;;;;;0.51;73.11;99858.88;5013568;28;20056;-76
2021/12/27 06:03:16;;;;;;;20.73;9.97;;;;;;;0.55;73.25;99850.34;5013457;28;20088;-76
2021/12/27 06:05:42;;;;;;;18.63;9.70;;;;;;;0.60;73.17;99853.91;5013099;28;20038;-76
2021/12/27 06:08:07;;;;;;;20.67;9.37;;;;;;;0.53;73.00;99849.41;5013314;28;20069;-76
2021/12/27 06:10:32;;;;;;;16.40;8.60;;;;;;;0.52;73.66;99852.84;5013208;28;20121;-77
2021/12/27 06:12:58;;;;;;;18.30;9.27;;;;;;;0.55;73.63;99852.03;5012001;28;20044;-76
2021/12/27 06:15:23;;;;;;;19.87;9.43;;;;;;;0.58;73.69;99854.72;5012516;28;20022;-76
2021/12/27 06:17:48;;;;;;;15.35;8.20;;;;;;;0.61;73.01;99840.09;5013034;28;20073;-76
2021/12/27 06:20:16;;;;;;;17.07;9.27;;;;;;;0.55;73.61;99845.16;5013215;28;20042;-76
2021/12/27 06:22:51;;;;;;;16.93;8.53;;;;;;;0.67;73.74;99857.53;5013143;28;20046;-76
2021/12/27 06:25:17;;;;;;;14.57;8.67;;;;;;;0.76;73.36;99852.56;5009217;28;20045;-76
2021/12/27 06:27:43;;;;;;;14.73;8.60;;;;;;;0.84;73.04;99850.13;5012671;28;20412;-76
2021/12/27 06:30:10;;;;;;;16.20;8.27;;;;;;;0.95;72.75;99845.16;5013015;28;20042;-74
2021/12/27 06:32:37;;;;;;;14.27;7.90;;;;;;;1.00;72.20;99851.34;5012960;28;20049;-75
2021/12/27 06:35:05;;;;;;;14.07;7.83;;;;;;;1.05;71.98;99847.09;5012622;28;20025;-75
2021/12/27 06:37:30;;;;;;;15.20;8.27;;;;;;;1.10;71.94;99850.66;5012768;28;20040;-73
2021/12/27 06:39:56;;;;;;;15.90;9.03;;;;;;;1.11;71.81;99852.44;5012626;28;20045;-74
2021/12/27 06:42:21;;;;;;;16.73;9.70;;;;;;;1.14;72.13;99851.63;5012432;28;20036;-74
2021/12/27 06:44:46;;;;;;;15.85;8.30;;;;;;;1.14;72.08;99857.69;5012170;28;20584;-74
2021/12/27 06:47:12;;;;;;;14.57;8.20;;;;;;;1.21;71.82;99859.56;5012664;28;20504;-74
2021/12/27 06:49:38;;;;;;;16.50;9.07;;;;;;;1.18;71.47;99858.63;5012483;28;20077;-74
2021/12/27 06:52:04;;;;;;;18.08;9.10;;;;;;;1.22;72.13;99860.44;5009908;28;20037;-74
2021/12/27 06:54:30;;;;;;;16.58;9.25;;;;;;;1.27;71.59;99861.41;5012058;28;20370;-74
2021/12/27 06:56:59;;;;;;;13.90;8.80;;;;;;;1.36;72.02;99860.72;5012466;28;20084;-75
2021/12/27 06:59:25;;;;;;;16.67;9.48;;;;;;;1.35;71.57;99858.97;5012284;28;20037;-73
2021/12/27 07:01:50;;;;;;;17.73;9.55;;;;;;;1.37;71.32;99849.50;5012459;28;20413;-74
2021/12/27 07:04:16;;;;;;;17.00;9.70;;;;;;;1.40;71.34;99854.75;5011797;28;20037;-74
2021/12/27 07:06:41;;;;;;;17.27;9.68;;;;;;;1.41;71.39;99856.50;5012092;28;20053;-73
2021/12/27 07:09:06;;;;;;;17.65;9.75;;;;;;;1.42;71.24;99858.25;5012117;28;20046;-74
2021/12/27 07:11:32;;;;;;;16.40;9.45;;;;;;;1.49;71.24;99860.13;5012215;28;20034;-74
2021/12/27 07:13:57;;;;;;;17.95;9.85;;;;;;;1.48;71.16;99859.25;5012178;28;20072;-74
2021/12/27 07:16:25;;;;;;;15.25;8.30;;;;;;;1.45;70.99;99858.31;5012003;28;20044;-74
2021/12/27 07:18:51;;;;;;;17.60;9.25;;;;;;;1.47;71.08;99851.44;5011995;28;20054;-74
2021/12/27 07:21:16;;;;;;;14.60;9.27;;;;;;;1.49;71.05;99860.13;5012146;28;20040;-74
2021/12/27 07:23:43;;;;;;;19.33;9.95;;;;;;;1.53;70.67;99857.59;5011817;28;20521;-74
2021/12/27 07:26:08;;;;;;;19.88;10.13;;;;;;;1.51;70.75;99859.28;5011197;28;20050;-74
2021/12/27 07:28:34;;;;;;;18.50;9.63;;;;;;;1.52;70.65;99858.47;5011836;28;20069;-74
2021/12/27 07:30:59;;;;;;;16.67;8.82;;;;;;;1.57;70.64;99849.84;5011949;28;20112;-75
2021/12/27 07:33:24;;;;;;;17.20;9.07;;;;;;;1.61;70.93;99849.94;5011961;28;20044;-74
2021/12/27 07:35:50;;;;;;;16.15;9.10;;;;;;;1.64;70.82;99850.00;5011610;28;20049;-73
2021/12/27 07:38:15;;;;;;;16.08;8.98;;;;;;;1.70;70.37;99849.25;5011609;28;20034;-74
2021/12/27 07:40:40;;;;;;;16.65;9.02;;;;;;;1.73;70.39;99844.13;5011803;28;20165;-74
2021/12/27 07:43:06;;;;;;;18.58;9.98;;;;;;;1.72;70.13;99838.00;5011665;28;20030;-74
2021/12/27 07:45:31;;;;;;;15.10;8.82;;;;;;;1.73;70.24;99841.53;5011512;28;20530;-75
2021/12/27 07:47:58;;;;;;;17.73;9.18;;;;;;;1.75;70.33;99845.00;5011710;28;20061;-74
2021/12/27 07:50:23;;;;;;;13.60;7.85;;;;;;;1.77;70.38;99839.84;5011650;28;20038;-74
2021/12/27 07:52:49;;;;;;;14.00;7.75;;;;;;;1.80;70.09;99845.97;5011494;28;20044;-74
2021/12/27 07:55:14;;;;;;;15.50;8.00;;;;;;;1.88;70.08;99843.50;5011372;28;20489;-73
2021/12/27 07:57:39;;;;;;;16.55;9.40;;;;;;;1.83;69.49;99846.00;5011570;28;20045;-74
2021/12/27 08:00:07;;;;;;;16.48;8.35;;;;;;;1.90;69.92;99849.63;5011520;28;20095;-74
2021/12/27 08:02:35;;;;;;;15.60;8.55;;;;;;;1.85;69.46;99844.31;5007868;28;20041;-74
2021/12/27 08:05:00;;;;;;;15.82;9.15;;;;;;;1.85;69.39;99844.31;5011176;28;20041;-73
2021/12/27 08:07:26;;;;;;;15.38;9.02;;;;;;;1.90;69.71;99839.22;5011368;28;20033;-74
2021/12/27 08:09:51;;;;;;;14.27;8.27;;;;;;;1.93;69.18;99844.47;5011370;28;20107;-74
2021/12/27 08:12:17;;;;;;;14.15;8.85;;;;;;;1.91;69.26;99840.94;5010216;28;20475;-74
2021/12/27 08:14:42;;;;;;;15.95;9.27;;;;;;;1.93;68.97;99841.84;5011176;28;20133;-74
2021/12/27 08:17:07;;;;;;;14.00;8.43;;;;;;;1.95;69.27;99841.03;5011461;28;20128;-74
2021/12/27 08:19:33;;;;;;;16.30;9.07;;;;;;;1.92;68.96;99834.91;5010977;28;20399;-75
2021/12/27 08:21:59;;;;;;;14.35;8.27;;;;;;;1.87;68.64;99839.16;5010065;28;20112;-74
2021/12/27 08:24:24;;;;;;;14.93;8.88;;;;;;;1.75;69.01;99838.06;5011015;28;20034;-75
2021/12/27 08:26:49;;;;;;;14.70;9.50;;;;;;;1.75;69.40;99827.66;5011261;28;20500;-75
2021/12/27 08:29:15;;;;;;;14.90;8.25;;;;;;;1.67;69.35;99831.84;5011274;28;20476;-74
2021/12/27 08:31:40;;;;;;;14.90;8.35;;;;;;;1.67;69.34;99838.78;5011254;28;20265;-74
2021/12/27 08:34:05;;;;;;;16.30;9.05;;;;;;;1.61;69.27;99834.34;5011550;28;20038;-74
2021/12/27 08:36:31;;;;;;;16.05;9.00;;;;;;;1.61;69.84;99831.75;5011036;28;20559;-73
2021/12/27 08:38:56;;;;;;;15.68;9.32;;;;;;;1.63;69.87;99826.59;5014963;28;20165;-75
2021/12/27 08:41:27;;;;;;;14.20;8.52;;;;;;;1.68;69.47;99824.94;5015026;28;20404;-74
2021/12/27 08:44:04;;;;;;;16.20;8.95;;;;;;;1.69;69.70;99827.56;5014804;28;20411;-74
2021/12/27 08:46:34;;;;;;;16.35;8.95;;;;;;;1.72;70.10;99824.13;5014767;28;20037;-74
2021/12/27 08:49:00;;;;;;;14.88;8.02;;;;;;;1.78;69.84;99825.97;5010771;28;20033;-73
2021/12/27 08:51:26;;;;;;;15.15;9.05;;;;;;;1.74;69.54;99823.31;5014790;28;20041;-74
2021/12/27 08:53:52;;;;;;;14.80;9.02;;;;;;;1.80;70.79;99829.47;5014747;28;20041;-75
2021/12/27 08:56:19;;;;;;;18.17;9.65;;;;;;;1.91;69.87;99823.63;5014486;28;20038;-75
2021/12/27 08:58:44;;;;;;;15.70;9.10;;;;;;;2.00;69.76;99817.69;5017051;28;20034;-74
2021/12/27 09:01:10;;;;;;;14.55;8.68;;;;;;;2.04;69.82;99818.63;5019463;28;20528;-74
2021/12/27 09:03:35;;;;;;;13.55;8.18;;;;;;;2.06;69.11;99816.91;5015127;28;20037;-75
2021/12/27 09:06:01;;;;;;;14.60;8.95;;;;;;;2.10;69.52;99819.59;5014425;28;20120;-74
2021/12/27 09:08:27;;;;;;;14.27;7.78;;;;;;;2.23;69.21;99822.38;5014436;28;20408;-75
2021/12/27 09:10:57;;;;;;;13.63;8.70;;;;;;;2.31;69.24;99818.22;5014518;28;20046;-74
2021/12/27 09:13:24;;;;;;;12.27;7.57;;;;;;;2.34;69.15;99808.72;5014418;28;20041;-74
2021/12/27 09:15:49;;;;;;;14.20;8.23;;;;;;;2.38;69.25;99813.13;5012854;28;20439;-74
2021/12/27 09:18:14;;;;;;;12.43;8.13;;;;;;;2.50;69.60;99821.97;5014142;28;20033;-74
2021/12/27 09:20:40;;;;;;;12.73;7.20;;;;;;;2.58;69.30;99802.97;5014268;28;20068;-73
2021/12/27 09:23:05;;;;;;;14.35;7.60;;;;;;;2.66;69.10;99810.03;5014285;28;20049;-75
2021/12/27 09:25:30;;;;;;;11.27;6.65;;;;;;;2.77;68.97;99809.31;5013916;28;20050;-74
2021/12/27 09:27:56;;;;;;;13.65;7.82;;;;;;;2.79;68.80;99807.63;5014120;28;20743;-74
2021/12/27 09:30:21;;;;;;;12.43;6.88;;;;;;;2.82;68.23;99807.66;5014083;28;20704;-74
2021/12/27 09:32:48;;;;;;;12.73;6.85;;;;;;;2.93;68.49;99805.19;5014055;28;20511;-74
2021/12/27 09:35:14;;;;;;;11.63;7.20;;;;;;;3.03;68.35;99799.22;5013759;28;20030;-75
2021/12/27 09:37:39;;;;;;;13.73;7.38;;;;;;;3.12;67.55;99806.31;5013916;28;20508;-75
2021/12/27 09:40:05;;;;;;;14.00;7.55;;;;;;;3.14;67.90;99807.19;5013933;28;20468;-74
2021/12/27 09:42:31;;;;;;;10.82;6.88;;;;;;;3.22;67.49;99800.34;5013776;28;20100;-74
2021/12/27 09:44:57;;;;;;;11.77;7.25;;;;;;;3.24;67.38;99795.13;5012371;28;20045;-75
2021/12/27 09:47:22;;;;;;;10.70;6.55;;;;;;;3.20;67.64;99793.38;5013734;28;20115;-75
2021/12/27 09:49:48;;;;;;;12.32;7.38;;;;;;;3.19;67.27;99800.28;5013013;28;20092;-75
2021/12/27 09:52:16;;;;;;;11.15;7.03;;;;;;;3.18;67.14;99792.47;5009777;28;20056;-75
2021/12/27 09:54:44;;;;;;;10.98;6.32;;;;;;;3.20;67.83;99794.25;5008310;28;20042;-75
2021/12/27 09:57:10;;;;;;;11.65;6.80;;;;;;;3.19;67.58;99784.66;5009681;28;20037;-75
2021/12/27 09:59:35;;;;;;;13.20;6.88;;;;;;;3.23;67.87;99785.59;5013491;28;20052;-75
2021/12/27 10:02:00;;;;;;;12.48;7.15;;;;;;;3.28;67.53;99782.16;5013425;28;20034;-75
2021/12/27 10:04:26;;;;;;;11.27;7.05;;;;;;;3.14;67.40;99783.72;5020379;28;20117;-75
2021/12/27 10:06:52;;;;;;;11.27;7.00;;;;;;;3.19;67.98;99779.44;5013395;28;20026;-74
2021/12/27 10:09:17;;;;;;;12.32;6.93;;;;;;;3.35;68.26;99777.00;5013355;28;20481;-75
2021/12/27 10:11:44;;;;;;;12.13;6.53;;;;;;;3.48;67.93;99773.66;5013364;28;20370;-73
2021/12/27 10:14:17;;;;;;;11.68;7.00;;;;;;;3.62;67.79;99779.03;5013565;28;20381;-74
2021/12/27 10:16:54;;;;;;;12.57;7.13;;;;;;;3.75;67.01;99775.69;5012938;28;20104;-75
2021/12/27 10:19:21;;;;;;;11.30;7.25;;;;;;;3.82;67.08;99769.63;5013037;28;20073;-73
2021/12/27 10:21:53;;;;;;;13.32;7.72;;;;;;;3.79;67.04;99759.19;5013069;28;20551;-75
2021/12/27 10:24:29;;;;;;;11.63;6.75;;;;;;;3.86;67.21;99760.13;5012932;28;20041;-74
2021/12/27 10:26:58;;;;;;;13.73;7.60;;;;;;;3.92;67.22;99747.97;5009653;28;20038;-75
2021/12/27 10:29:27;;;;;;;13.48;7.95;;;;;;;3.98;66.78;99752.38;5012470;28;20041;-75
2021/12/27 10:31:56;;;;;;;12.23;7.40;;;;;;;3.93;66.79;99752.34;5012954;28;20042;-74
2021/12/27 10:34:24;;;;;;;13.57;7.53;;;;;;;3.93;66.80;99752.34;5012607;28;20055;-74
2021/12/27 10:36:56;;;;;;;12.65;7.95;;;;;;;3.93;67.05;99746.25;5012827;28;20034;-74
2021/12/27 10:39:22;;;;;;;12.30;7.80;;;;;;;3.83;67.20;99742.69;5012708;28;20034;-74
2021/12/27 10:41:47;;;;;;;14.45;8.43;;;;;;;3.87;67.75;99741.84;5012611;28;20120;-75
2021/12/27 10:44:13;;;;;;;11.80;7.40;;;;;;;3.96;67.24;99733.22;5012645;28;20125;-74
2021/12/27 10:46:38;;;;;;;12.52;7.88;;;;;;;3.85;67.28;99738.38;5012129;28;20042;-74
2021/12/27 10:49:03;;;;;;;13.30;7.68;;;;;;;3.81;67.49;99731.34;5012473;28;20045;-75
2021/12/27 10:51:29;;;;;;;14.27;7.53;;;;;;;3.82;67.47;99733.09;5012287;28;20030;-75
2021/12/27 10:53:57;;;;;;;14.75;8.45;;;;;;;3.79;66.91;99727.84;5012511;28;20061;-75
2021/12/27 10:56:26;;;;;;;12.98;7.82;;;;;;;3.84;67.51;99731.38;5012311;28;20128;-75
2021/12/27 10:58:59;;;;;;;13.10;8.32;;;;;;;3.77;67.65;99729.56;5012356;28;20042;-75
2021/12/27 11:01:28;;;;;;;24.00;12.88;;;;;;;3.90;68.24;99726.22;5007784;28;20052;-75
2021/12/27 11:03:59;;;;;;;14.55;8.68;;;;;;;3.86;67.54;99727.06;5008548;28;20050;-75
2021/12/27 11:06:29;;;;;;;12.27;7.50;;;;;;;3.89;67.90;99724.47;5008825;28;20042;-74
2021/12/27 11:08:54;;;;;;;10.80;6.97;;;;;;;3.95;67.46;99719.28;5012097;28;20038;-74
2021/12/27 11:11:22;;;;;;;11.98;7.40;;;;;;;3.93;67.12;99721.03;5012286;28;20172;-75
2021/12/27 11:13:51;;;;;;;14.55;8.02;;;;;;;3.97;67.10;99713.22;5012277;28;20045;-75
2021/12/27 11:16:16;;;;;;;13.88;7.88;;;;;;;4.07;67.27;99704.59;5011971;28;20052;-73
2021/12/27 11:18:42;;;;;;;14.98;8.70;;;;;;;4.10;67.25;99704.59;5012003;28;20117;-75
2021/12/27 11:21:19;;;;;;;12.48;8.48;;;;;;;4.21;67.10;99699.44;5012043;28;20060;-74
2021/12/27 11:23:50;;;;;;;12.55;7.80;;;;;;;4.26;65.76;99696.00;5009109;28;20104;-75
2021/12/27 11:26:23;;;;;;;12.55;7.60;;;;;;;4.28;66.15;99696.88;5011761;28;20048;-75